SBOSBO ANU / TAPA
Speedbird OnlineSpeedbird Online ANU / TAPA

V.C. Bird International Airport
16:39 29°C

Location Antigua, Antigua and Barbuda
Latitude: 17.1367
Longitude: -61.792702
Local Time 16:39 on 29 May 2024
UTC -4 hours (America/Antigua)
Currency £1 equals XCD 3.45
METAR TAPA 292000Z 09010KT 040V130 9999 SCT020 29/24 Q1016 NOSIG
TAF TAF TAPA 291700Z 2918/3018 10008KT 9999 SCT018
Weather As Of 29 May 2024 16:39
Description Scattered clouds
Wind 19 km/h from East (90°)
Cloud Cover 40%
Precipitation Rain: none, Snow: none
Sunrise 05:32
Sunset 18:36
NOTAM 6 active NOTAM
Rotations During the last 90 days there were
61 flights from LGW
24 flights from SKB
17 flights from AUA
1 flights from ANU
64 flights to LGW
22 flights to SKB
16 flights to AUA
1 flights to ANU
Lounges Executive Lounge, Main Terminal
Web Wikipedia
Codes IATA: ANU
ICAO: TAPA
Altitude 19 Meter / 62 Feet
Distance 6,593 KM / 4,097 Miles
from London.
Runways
RunwayLength (m)Surface
072744Asphalt
252744Asphalt
Radio
TypeDescriptionFrequency
APPAPP119.1
ATISATIS114.5
GNDGND121.9
RDOANTIQUA RDO26.48
TWRTWR118.2
Live ATC



Support Speedbird Online

© 2017-2024 Speedbird Online